sensor_id;sensor_type;location;lat;lon;timestamp;P1;durP1;ratioP1;P2;durP2;ratioP2
32196;SDS011;18697;42.770;23.400;2023-04-25T00:02:01;4.47;;;3.67;;
32196;SDS011;18697;42.770;23.400;2023-04-25T00:04:26;6.88;;;3.80;;
32196;SDS011;18697;42.770;23.400;2023-04-25T00:06:53;2.17;;;1.77;;
32196;SDS011;18697;42.770;23.400;2023-04-25T00:09:19;1.85;;;1.75;;
32196;SDS011;18697;42.770;23.400;2023-04-25T00:11:44;2.95;;;1.73;;
32196;SDS011;18697;42.770;23.400;2023-04-25T00:14:09;2.13;;;1.92;;
32196;SDS011;18697;42.770;23.400;2023-04-25T00:16:35;3.88;;;2.72;;
32196;SDS011;18697;42.770;23.400;2023-04-25T00:19:01;2.95;;;2.40;;
32196;SDS011;18697;42.770;23.400;2023-04-25T00:21:27;4.22;;;3.45;;
32196;SDS011;18697;42.770;23.400;2023-04-25T00:23:53;3.50;;;3.20;;
32196;SDS011;18697;42.770;23.400;2023-04-25T00:26:19;3.85;;;3.13;;
32196;SDS011;18697;42.770;23.400;2023-04-25T00:28:45;3.35;;;3.05;;
32196;SDS011;18697;42.770;23.400;2023-04-25T00:31:11;3.00;;;2.42;;
32196;SDS011;18697;42.770;23.400;2023-04-25T00:36:02;3.50;;;2.72;;
32196;SDS011;18697;42.770;23.400;2023-04-25T00:38:27;5.38;;;2.95;;
32196;SDS011;18697;42.770;23.400;2023-04-25T00:43:20;2.97;;;2.70;;
32196;SDS011;18697;42.770;23.400;2023-04-25T00:45:46;3.03;;;2.35;;
32196;SDS011;18697;42.770;23.400;2023-04-25T00:48:13;2.80;;;2.50;;
32196;SDS011;18697;42.770;23.400;2023-04-25T00:50:39;3.38;;;2.55;;
32196;SDS011;18697;42.770;23.400;2023-04-25T00:53:05;2.95;;;2.42;;
32196;SDS011;18697;42.770;23.400;2023-04-25T00:55:31;2.50;;;2.30;;
32196;SDS011;18697;42.770;23.400;2023-04-25T00:57:57;2.83;;;2.20;;
32196;SDS011;18697;42.770;23.400;2023-04-25T01:00:23;2.15;;;1.95;;
32196;SDS011;18697;42.770;23.400;2023-04-25T01:02:49;2.47;;;2.28;;
32196;SDS011;18697;42.770;23.400;2023-04-25T01:05:15;1.60;;;1.50;;
32196;SDS011;18697;42.770;23.400;2023-04-25T01:07:41;1.98;;;1.83;;
32196;SDS011;18697;42.770;23.400;2023-04-25T01:10:06;2.42;;;2.17;;
32196;SDS011;18697;42.770;23.400;2023-04-25T01:12:32;3.65;;;2.55;;
32196;SDS011;18697;42.770;23.400;2023-04-25T01:14:57;2.45;;;2.25;;
32196;SDS011;18697;42.770;23.400;2023-04-25T01:17:23;2.20;;;1.95;;
32196;SDS011;18697;42.770;23.400;2023-04-25T01:19:49;2.10;;;2.00;;
32196;SDS011;18697;42.770;23.400;2023-04-25T01:22:15;2.60;;;2.15;;
32196;SDS011;18697;42.770;23.400;2023-04-25T01:24:41;2.72;;;2.30;;
32196;SDS011;18697;42.770;23.400;2023-04-25T01:27:07;2.05;;;1.92;;
32196;SDS011;18697;42.770;23.400;2023-04-25T01:29:33;2.30;;;2.00;;
32196;SDS011;18697;42.770;23.400;2023-04-25T01:31:59;2.25;;;2.10;;
32196;SDS011;18697;42.770;23.400;2023-04-25T01:34:26;1.95;;;1.85;;
32196;SDS011;18697;42.770;23.400;2023-04-25T01:36:52;2.95;;;1.92;;
32196;SDS011;18697;42.770;23.400;2023-04-25T01:39:18;1.70;;;1.60;;
32196;SDS011;18697;42.770;23.400;2023-04-25T01:41:45;2.30;;;1.90;;
32196;SDS011;18697;42.770;23.400;2023-04-25T01:44:11;2.95;;;1.77;;
32196;SDS011;18697;42.770;23.400;2023-04-25T01:46:37;2.25;;;2.05;;
32196;SDS011;18697;42.770;23.400;2023-04-25T01:49:02;2.33;;;1.92;;
32196;SDS011;18697;42.770;23.400;2023-04-25T01:51:28;2.13;;;1.80;;
32196;SDS011;18697;42.770;23.400;2023-04-25T01:53:53;2.22;;;2.05;;
32196;SDS011;18697;42.770;23.400;2023-04-25T01:56:20;2.70;;;1.75;;
32196;SDS011;18697;42.770;23.400;2023-04-25T01:58:45;2.20;;;2.00;;
32196;SDS011;18697;42.770;23.400;2023-04-25T02:01:10;5.53;;;3.22;;
32196;SDS011;18697;42.770;23.400;2023-04-25T02:03:36;2.55;;;2.30;;
32196;SDS011;18697;42.770;23.400;2023-04-25T02:06:01;1.58;;;1.48;;
32196;SDS011;18697;42.770;23.400;2023-04-25T02:08:27;2.22;;;2.00;;
32196;SDS011;18697;42.770;23.400;2023-04-25T02:10:52;1.90;;;1.75;;
32196;SDS011;18697;42.770;23.400;2023-04-25T02:13:18;2.35;;;1.88;;
32196;SDS011;18697;42.770;23.400;2023-04-25T02:15:43;2.80;;;2.25;;
32196;SDS011;18697;42.770;23.400;2023-04-25T02:18:08;4.57;;;2.13;;
32196;SDS011;18697;42.770;23.400;2023-04-25T02:20:35;1.70;;;1.60;;
32196;SDS011;18697;42.770;23.400;2023-04-25T02:23:01;2.35;;;1.70;;
32196;SDS011;18697;42.770;23.400;2023-04-25T02:25:27;1.95;;;1.80;;
32196;SDS011;18697;42.770;23.400;2023-04-25T02:27:52;2.42;;;1.77;;
32196;SDS011;18697;42.770;23.400;2023-04-25T02:30:18;1.58;;;1.48;;
32196;SDS011;18697;42.770;23.400;2023-04-25T02:32:44;4.03;;;1.95;;
32196;SDS011;18697;42.770;23.400;2023-04-25T02:35:09;2.15;;;2.00;;
32196;SDS011;18697;42.770;23.400;2023-04-25T02:37:36;2.08;;;1.88;;
32196;SDS011;18697;42.770;23.400;2023-04-25T02:40:02;2.05;;;1.90;;
32196;SDS011;18697;42.770;23.400;2023-04-25T02:42:28;2.38;;;2.05;;
32196;SDS011;18697;42.770;23.400;2023-04-25T02:44:54;2.13;;;1.92;;
32196;SDS011;18697;42.770;23.400;2023-04-25T02:47:19;2.63;;;2.25;;
32196;SDS011;18697;42.770;23.400;2023-04-25T02:49:45;1.80;;;1.65;;
32196;SDS011;18697;42.770;23.400;2023-04-25T02:52:11;2.03;;;1.83;;
32196;SDS011;18697;42.770;23.400;2023-04-25T02:54:37;2.65;;;1.70;;
32196;SDS011;18697;42.770;23.400;2023-04-25T02:57:03;2.53;;;2.33;;
32196;SDS011;18697;42.770;23.400;2023-04-25T02:59:29;2.35;;;2.15;;
32196;SDS011;18697;42.770;23.400;2023-04-25T03:01:54;3.25;;;2.35;;
32196;SDS011;18697;42.770;23.400;2023-04-25T03:04:19;2.67;;;2.17;;
32196;SDS011;18697;42.770;23.400;2023-04-25T03:06:45;3.35;;;2.08;;
32196;SDS011;18697;42.770;23.400;2023-04-25T03:09:11;3.67;;;2.50;;
32196;SDS011;18697;42.770;23.400;2023-04-25T03:11:38;2.58;;;2.38;;
32196;SDS011;18697;42.770;23.400;2023-04-25T03:14:03;2.38;;;2.17;;
32196;SDS011;18697;42.770;23.400;2023-04-25T03:16:29;2.88;;;1.95;;
32196;SDS011;18697;42.770;23.400;2023-04-25T03:18:55;3.22;;;2.88;;
32196;SDS011;18697;42.770;23.400;2023-04-25T03:21:21;3.40;;;3.10;;
32196;SDS011;18697;42.770;23.400;2023-04-25T03:23:47;2.17;;;2.00;;
32196;SDS011;18697;42.770;23.400;2023-04-25T03:26:12;6.88;;;5.38;;
32196;SDS011;18697;42.770;23.400;2023-04-25T03:28:37;4.40;;;3.78;;
32196;SDS011;18697;42.770;23.400;2023-04-25T03:31:04;2.90;;;2.60;;
32196;SDS011;18697;42.770;23.400;2023-04-25T03:33:30;17.23;;;11.98;;
32196;SDS011;18697;42.770;23.400;2023-04-25T03:35:55;29.15;;;22.52;;
32196;SDS011;18697;42.770;23.400;2023-04-25T03:38:20;11.32;;;6.53;;
32196;SDS011;18697;42.770;23.400;2023-04-25T03:40:46;25.20;;;18.60;;
32196;SDS011;18697;42.770;23.400;2023-04-25T03:43:11;45.00;;;31.65;;
32196;SDS011;18697;42.770;23.400;2023-04-25T03:45:37;13.48;;;11.30;;
32196;SDS011;18697;42.770;23.400;2023-04-25T03:48:02;18.17;;;13.23;;
32196;SDS011;18697;42.770;23.400;2023-04-25T03:50:28;13.00;;;10.60;;
32196;SDS011;18697;42.770;23.400;2023-04-25T03:55:18;12.95;;;9.68;;
32196;SDS011;18697;42.770;23.400;2023-04-25T03:57:45;14.32;;;10.98;;
32196;SDS011;18697;42.770;23.400;2023-04-25T04:00:10;17.23;;;10.40;;
32196;SDS011;18697;42.770;23.400;2023-04-25T04:02:36;14.68;;;9.70;;
32196;SDS011;18697;42.770;23.400;2023-04-25T04:05:03;16.40;;;12.35;;
32196;SDS011;18697;42.770;23.400;2023-04-25T04:07:29;15.88;;;11.27;;
32196;SDS011;18697;42.770;23.400;2023-04-25T04:09:57;12.85;;;10.32;;
32196;SDS011;18697;42.770;23.400;2023-04-25T04:12:22;19.15;;;12.52;;
32196;SDS011;18697;42.770;23.400;2023-04-25T04:14:47;19.98;;;12.80;;
32196;SDS011;18697;42.770;23.400;2023-04-25T04:17:13;18.75;;;13.30;;
32196;SDS011;18697;42.770;23.400;2023-04-25T04:19:38;36.05;;;20.38;;
32196;SDS011;18697;42.770;23.400;2023-04-25T04:22:03;22.08;;;13.23;;
32196;SDS011;18697;42.770;23.400;2023-04-25T04:24:29;14.57;;;10.57;;
32196;SDS011;18697;42.770;23.400;2023-04-25T04:26:54;16.08;;;10.77;;
32196;SDS011;18697;42.770;23.400;2023-04-25T04:29:20;13.82;;;9.85;;
32196;SDS011;18697;42.770;23.400;2023-04-25T04:31:48;25.88;;;12.32;;
32196;SDS011;18697;42.770;23.400;2023-04-25T04:34:14;19.65;;;10.93;;
32196;SDS011;18697;42.770;23.400;2023-04-25T04:36:41;7.00;;;5.32;;
32196;SDS011;18697;42.770;23.400;2023-04-25T04:39:07;8.68;;;4.80;;
32196;SDS011;18697;42.770;23.400;2023-04-25T04:41:34;12.43;;;5.75;;
32196;SDS011;18697;42.770;23.400;2023-04-25T04:43:59;29.13;;;20.38;;
32196;SDS011;18697;42.770;23.400;2023-04-25T04:46:26;4.75;;;3.60;;
32196;SDS011;18697;42.770;23.400;2023-04-25T04:48:52;4.15;;;2.28;;
32196;SDS011;18697;42.770;23.400;2023-04-25T04:51:18;5.03;;;2.83;;
32196;SDS011;18697;42.770;23.400;2023-04-25T04:53:44;37.58;;;25.05;;
32196;SDS011;18697;42.770;23.400;2023-04-25T04:56:09;30.63;;;21.60;;
32196;SDS011;18697;42.770;23.400;2023-04-25T04:58:35;50.40;;;35.53;;
32196;SDS011;18697;42.770;23.400;2023-04-25T05:01:01;37.38;;;25.95;;
32196;SDS011;18697;42.770;23.400;2023-04-25T05:03:27;53.17;;;38.88;;
32196;SDS011;18697;42.770;23.400;2023-04-25T05:05:53;64.85;;;43.75;;
32196;SDS011;18697;42.770;23.400;2023-04-25T05:08:18;46.53;;;34.53;;
32196;SDS011;18697;42.770;23.400;2023-04-25T05:10:43;29.75;;;21.30;;
32196;SDS011;18697;42.770;23.400;2023-04-25T05:13:09;44.85;;;34.47;;
32196;SDS011;18697;42.770;23.400;2023-04-25T05:15:34;48.45;;;36.92;;
32196;SDS011;18697;42.770;23.400;2023-04-25T05:18:00;46.53;;;35.53;;
32196;SDS011;18697;42.770;23.400;2023-04-25T05:20:25;34.17;;;26.15;;
32196;SDS011;18697;42.770;23.400;2023-04-25T05:22:51;44.65;;;32.33;;
32196;SDS011;18697;42.770;23.400;2023-04-25T05:25:16;42.85;;;32.28;;
32196;SDS011;18697;42.770;23.400;2023-04-25T05:27:41;21.00;;;14.23;;
32196;SDS011;18697;42.770;23.400;2023-04-25T05:30:07;24.77;;;17.48;;
32196;SDS011;18697;42.770;23.400;2023-04-25T05:32:33;14.27;;;10.63;;
32196;SDS011;18697;42.770;23.400;2023-04-25T05:34:59;15.05;;;8.38;;
32196;SDS011;18697;42.770;23.400;2023-04-25T05:37:25;27.73;;;20.75;;
32196;SDS011;18697;42.770;23.400;2023-04-25T05:39:50;36.03;;;26.40;;
32196;SDS011;18697;42.770;23.400;2023-04-25T05:42:15;18.30;;;14.32;;
32196;SDS011;18697;42.770;23.400;2023-04-25T05:44:41;29.17;;;22.10;;
32196;SDS011;18697;42.770;23.400;2023-04-25T05:49:31;32.28;;;23.30;;
32196;SDS011;18697;42.770;23.400;2023-04-25T05:54:22;31.13;;;24.63;;
32196;SDS011;18697;42.770;23.400;2023-04-25T05:56:48;26.60;;;20.23;;
32196;SDS011;18697;42.770;23.400;2023-04-25T05:59:13;24.40;;;19.38;;
32196;SDS011;18697;42.770;23.400;2023-04-25T06:01:38;29.33;;;23.25;;
32196;SDS011;18697;42.770;23.400;2023-04-25T06:04:05;35.80;;;28.55;;
32196;SDS011;18697;42.770;23.400;2023-04-25T06:06:30;31.08;;;21.95;;
32196;SDS011;18697;42.770;23.400;2023-04-25T06:08:56;38.92;;;30.45;;
32196;SDS011;18697;42.770;23.400;2023-04-25T06:11:22;38.03;;;26.38;;
32196;SDS011;18697;42.770;23.400;2023-04-25T06:13:47;31.30;;;23.40;;
32196;SDS011;18697;42.770;23.400;2023-04-25T06:16:12;13.77;;;10.50;;
32196;SDS011;18697;42.770;23.400;2023-04-25T06:18:38;12.50;;;9.77;;
32196;SDS011;18697;42.770;23.400;2023-04-25T06:21:03;44.28;;;31.70;;
32196;SDS011;18697;42.770;23.400;2023-04-25T06:23:29;22.38;;;16.85;;
32196;SDS011;18697;42.770;23.400;2023-04-25T06:25:54;29.45;;;22.08;;
32196;SDS011;18697;42.770;23.400;2023-04-25T06:28:19;38.45;;;28.67;;
32196;SDS011;18697;42.770;23.400;2023-04-25T06:30:47;10.93;;;7.82;;
32196;SDS011;18697;42.770;23.400;2023-04-25T06:33:12;26.88;;;21.10;;
32196;SDS011;18697;42.770;23.400;2023-04-25T06:35:37;8.30;;;7.40;;
32196;SDS011;18697;42.770;23.400;2023-04-25T06:38:03;20.05;;;13.90;;
32196;SDS011;18697;42.770;23.400;2023-04-25T06:40:34;32.95;;;23.83;;
32196;SDS011;18697;42.770;23.400;2023-04-25T06:43:09;21.50;;;14.63;;
32196;SDS011;18697;42.770;23.400;2023-04-25T06:46:00;33.28;;;26.52;;
32196;SDS011;18697;42.770;23.400;2023-04-25T06:48:29;44.08;;;30.30;;
32196;SDS011;18697;42.770;23.400;2023-04-25T06:50:56;17.67;;;9.73;;
32196;SDS011;18697;42.770;23.400;2023-04-25T06:53:31;25.10;;;16.63;;
32196;SDS011;18697;42.770;23.400;2023-04-25T06:55:56;14.20;;;11.65;;
32196;SDS011;18697;42.770;23.400;2023-04-25T06:58:25;8.93;;;5.63;;
32196;SDS011;18697;42.770;23.400;2023-04-25T07:00:51;16.85;;;12.98;;
32196;SDS011;18697;42.770;23.400;2023-04-25T07:03:16;44.15;;;33.50;;
32196;SDS011;18697;42.770;23.400;2023-04-25T07:08:07;26.05;;;18.95;;
32196;SDS011;18697;42.770;23.400;2023-04-25T07:10:32;26.88;;;21.23;;
32196;SDS011;18697;42.770;23.400;2023-04-25T07:12:58;17.92;;;13.43;;
32196;SDS011;18697;42.770;23.400;2023-04-25T07:15:23;31.67;;;24.75;;
32196;SDS011;18697;42.770;23.400;2023-04-25T07:17:48;29.75;;;23.42;;
32196;SDS011;18697;42.770;23.400;2023-04-25T07:20:14;29.63;;;20.67;;
32196;SDS011;18697;42.770;23.400;2023-04-25T07:22:41;22.67;;;16.42;;
32196;SDS011;18697;42.770;23.400;2023-04-25T07:25:06;17.90;;;14.07;;
32196;SDS011;18697;42.770;23.400;2023-04-25T07:27:33;6.45;;;5.70;;
32196;SDS011;18697;42.770;23.400;2023-04-25T07:29:59;20.88;;;12.70;;
32196;SDS011;18697;42.770;23.400;2023-04-25T07:32:24;19.38;;;14.38;;
32196;SDS011;18697;42.770;23.400;2023-04-25T07:34:50;18.73;;;13.52;;
32196;SDS011;18697;42.770;23.400;2023-04-25T07:37:16;5.32;;;4.82;;
32196;SDS011;18697;42.770;23.400;2023-04-25T07:39:43;7.88;;;5.95;;
32196;SDS011;18697;42.770;23.400;2023-04-25T07:42:10;7.07;;;5.10;;
32196;SDS011;18697;42.770;23.400;2023-04-25T07:44:36;16.70;;;12.63;;
32196;SDS011;18697;42.770;23.400;2023-04-25T07:47:06;16.33;;;11.50;;
32196;SDS011;18697;42.770;23.400;2023-04-25T07:49:33;6.50;;;4.30;;
32196;SDS011;18697;42.770;23.400;2023-04-25T07:51:59;9.57;;;7.18;;
32196;SDS011;18697;42.770;23.400;2023-04-25T07:54:25;6.25;;;4.40;;
32196;SDS011;18697;42.770;23.400;2023-04-25T07:56:51;11.27;;;7.57;;
32196;SDS011;18697;42.770;23.400;2023-04-25T07:59:16;21.42;;;15.40;;
32196;SDS011;18697;42.770;23.400;2023-04-25T08:01:41;20.98;;;15.07;;
32196;SDS011;18697;42.770;23.400;2023-04-25T08:04:07;15.65;;;12.65;;
32196;SDS011;18697;42.770;23.400;2023-04-25T08:06:32;15.07;;;10.57;;
32196;SDS011;18697;42.770;23.400;2023-04-25T08:08:57;6.53;;;4.85;;
32196;SDS011;18697;42.770;23.400;2023-04-25T08:11:23;9.10;;;5.75;;
32196;SDS011;18697;42.770;23.400;2023-04-25T08:13:48;7.65;;;5.63;;
32196;SDS011;18697;42.770;23.400;2023-04-25T08:16:14;7.65;;;6.57;;
32196;SDS011;18697;42.770;23.400;2023-04-25T08:18:39;13.13;;;9.40;;
32196;SDS011;18697;42.770;23.400;2023-04-25T08:21:05;8.90;;;6.30;;
32196;SDS011;18697;42.770;23.400;2023-04-25T08:23:31;8.20;;;6.32;;
32196;SDS011;18697;42.770;23.400;2023-04-25T08:25:57;7.30;;;5.20;;
32196;SDS011;18697;42.770;23.400;2023-04-25T08:28:22;11.80;;;8.77;;
32196;SDS011;18697;42.770;23.400;2023-04-25T08:30:47;11.07;;;7.78;;
32196;SDS011;18697;42.770;23.400;2023-04-25T08:33:13;7.22;;;6.53;;
32196;SDS011;18697;42.770;23.400;2023-04-25T08:35:38;16.45;;;12.30;;
32196;SDS011;18697;42.770;23.400;2023-04-25T08:38:04;13.98;;;10.23;;
32196;SDS011;18697;42.770;23.400;2023-04-25T08:40:29;14.23;;;10.30;;
32196;SDS011;18697;42.770;23.400;2023-04-25T08:43:02;5.28;;;4.30;;
32196;SDS011;18697;42.770;23.400;2023-04-25T08:45:28;12.77;;;8.93;;
32196;SDS011;18697;42.770;23.400;2023-04-25T08:47:57;5.70;;;4.20;;
32196;SDS011;18697;42.770;23.400;2023-04-25T08:50:22;10.57;;;4.70;;
32196;SDS011;18697;42.770;23.400;2023-04-25T08:52:48;8.85;;;6.68;;
32196;SDS011;18697;42.770;23.400;2023-04-25T08:55:17;8.18;;;7.00;;
32196;SDS011;18697;42.770;23.400;2023-04-25T08:57:43;8.48;;;5.82;;
32196;SDS011;18697;42.770;23.400;2023-04-25T09:00:10;11.43;;;8.18;;
32196;SDS011;18697;42.770;23.400;2023-04-25T09:02:37;19.67;;;12.02;;
32196;SDS011;18697;42.770;23.400;2023-04-25T09:05:04;18.92;;;12.43;;
32196;SDS011;18697;42.770;23.400;2023-04-25T09:07:31;8.32;;;5.20;;
32196;SDS011;18697;42.770;23.400;2023-04-25T09:09:57;5.38;;;4.65;;
32196;SDS011;18697;42.770;23.400;2023-04-25T09:12:24;14.85;;;11.23;;
32196;SDS011;18697;42.770;23.400;2023-04-25T09:15:04;21.52;;;13.10;;
32196;SDS011;18697;42.770;23.400;2023-04-25T09:17:36;16.77;;;13.15;;
32196;SDS011;18697;42.770;23.400;2023-04-25T09:20:09;16.08;;;10.23;;
32196;SDS011;18697;42.770;23.400;2023-04-25T09:22:37;3.40;;;3.10;;
32196;SDS011;18697;42.770;23.400;2023-04-25T09:25:03;5.07;;;4.10;;
32196;SDS011;18697;42.770;23.400;2023-04-25T09:27:36;8.73;;;6.55;;
32196;SDS011;18697;42.770;23.400;2023-04-25T09:30:01;3.95;;;3.50;;
32196;SDS011;18697;42.770;23.400;2023-04-25T09:32:27;5.07;;;4.15;;
32196;SDS011;18697;42.770;23.400;2023-04-25T09:34:54;4.10;;;3.70;;
32196;SDS011;18697;42.770;23.400;2023-04-25T09:37:21;6.57;;;3.97;;
32196;SDS011;18697;42.770;23.400;2023-04-25T09:39:52;4.57;;;3.90;;
32196;SDS011;18697;42.770;23.400;2023-04-25T09:42:21;4.32;;;3.90;;
32196;SDS011;18697;42.770;23.400;2023-04-25T09:44:49;4.93;;;2.83;;
32196;SDS011;18697;42.770;23.400;2023-04-25T09:47:17;7.80;;;2.65;;
32196;SDS011;18697;42.770;23.400;2023-04-25T09:49:43;7.22;;;2.90;;
32196;SDS011;18697;42.770;23.400;2023-04-25T09:52:09;9.85;;;5.35;;
32196;SDS011;18697;42.770;23.400;2023-04-25T09:54:39;7.30;;;4.45;;
32196;SDS011;18697;42.770;23.400;2023-04-25T09:57:12;6.90;;;5.50;;
32196;SDS011;18697;42.770;23.400;2023-04-25T09:59:38;2.75;;;2.50;;
32196;SDS011;18697;42.770;23.400;2023-04-25T10:02:07;7.45;;;5.43;;
32196;SDS011;18697;42.770;23.400;2023-04-25T10:04:34;7.60;;;2.92;;
32196;SDS011;18697;42.770;23.400;2023-04-25T10:07:01;3.03;;;2.10;;
32196;SDS011;18697;42.770;23.400;2023-04-25T10:09:30;7.22;;;5.40;;
32196;SDS011;18697;42.770;23.400;2023-04-25T10:11:58;5.90;;;5.30;;
32196;SDS011;18697;42.770;23.400;2023-04-25T10:14:25;3.17;;;2.65;;
32196;SDS011;18697;42.770;23.400;2023-04-25T10:16:54;5.13;;;3.92;;
32196;SDS011;18697;42.770;23.400;2023-04-25T10:19:21;6.53;;;5.25;;
32196;SDS011;18697;42.770;23.400;2023-04-25T10:21:51;2.25;;;1.83;;
32196;SDS011;18697;42.770;23.400;2023-04-25T10:24:28;7.90;;;5.45;;
32196;SDS011;18697;42.770;23.400;2023-04-25T10:26:54;8.70;;;6.53;;
32196;SDS011;18697;42.770;23.400;2023-04-25T10:29:22;6.65;;;4.93;;
32196;SDS011;18697;42.770;23.400;2023-04-25T10:31:49;3.25;;;1.60;;
32196;SDS011;18697;42.770;23.400;2023-04-25T10:34:15;5.05;;;2.85;;
32196;SDS011;18697;42.770;23.400;2023-04-25T10:36:51;2.25;;;1.45;;
32196;SDS011;18697;42.770;23.400;2023-04-25T10:39:24;3.00;;;2.70;;
32196;SDS011;18697;42.770;23.400;2023-04-25T10:41:58;4.53;;;2.90;;
32196;SDS011;18697;42.770;23.400;2023-04-25T10:44:27;2.40;;;1.42;;
32196;SDS011;18697;42.770;23.400;2023-04-25T10:46:58;5.53;;;1.00;;
32196;SDS011;18697;42.770;23.400;2023-04-25T10:49:32;1.48;;;1.23;;
32196;SDS011;18697;42.770;23.400;2023-04-25T10:54:53;2.42;;;1.05;;
32196;SDS011;18697;42.770;23.400;2023-04-25T11:00:05;2.03;;;1.10;;
32196;SDS011;18697;42.770;23.400;2023-04-25T11:02:37;2.58;;;1.45;;
32196;SDS011;18697;42.770;23.400;2023-04-25T11:05:06;3.35;;;1.30;;
32196;SDS011;18697;42.770;23.400;2023-04-25T11:10:09;1.42;;;1.33;;
32196;SDS011;18697;42.770;23.400;2023-04-25T11:12:34;0.80;;;0.80;;
32196;SDS011;18697;42.770;23.400;2023-04-25T11:15:03;1.13;;;0.90;;
32196;SDS011;18697;42.770;23.400;2023-04-25T11:17:30;1.90;;;1.08;;
32196;SDS011;18697;42.770;23.400;2023-04-25T11:19:56;1.27;;;0.95;;
32196;SDS011;18697;42.770;23.400;2023-04-25T11:22:22;0.70;;;0.70;;
32196;SDS011;18697;42.770;23.400;2023-04-25T11:24:48;1.05;;;0.70;;
32196;SDS011;18697;42.770;23.400;2023-04-25T11:27:13;1.08;;;0.77;;
32196;SDS011;18697;42.770;23.400;2023-04-25T11:29:39;3.65;;;0.80;;
32196;SDS011;18697;42.770;23.400;2023-04-25T11:32:08;1.33;;;0.70;;
32196;SDS011;18697;42.770;23.400;2023-04-25T11:34:33;1.35;;;0.80;;
32196;SDS011;18697;42.770;23.400;2023-04-25T11:36:59;1.77;;;0.82;;
32196;SDS011;18697;42.770;23.400;2023-04-25T11:39:26;0.98;;;0.93;;
32196;SDS011;18697;42.770;23.400;2023-04-25T11:41:53;1.27;;;0.73;;
32196;SDS011;18697;42.770;23.400;2023-04-25T11:44:27;0.82;;;0.60;;
32196;SDS011;18697;42.770;23.400;2023-04-25T11:46:53;0.80;;;0.80;;
32196;SDS011;18697;42.770;23.400;2023-04-25T11:49:32;0.45;;;0.45;;
32196;SDS011;18697;42.770;23.400;2023-04-25T11:51:57;0.52;;;0.52;;
32196;SDS011;18697;42.770;23.400;2023-04-25T11:54:23;0.43;;;0.43;;
32196;SDS011;18697;42.770;23.400;2023-04-25T11:56:48;2.35;;;0.50;;
32196;SDS011;18697;42.770;23.400;2023-04-25T11:59:13;1.38;;;0.50;;
32196;SDS011;18697;42.770;23.400;2023-04-25T12:01:47;1.05;;;0.70;;
32196;SDS011;18697;42.770;23.400;2023-04-25T12:04:15;0.70;;;0.50;;
32196;SDS011;18697;42.770;23.400;2023-04-25T12:06:42;1.23;;;0.65;;
32196;SDS011;18697;42.770;23.400;2023-04-25T12:09:12;0.68;;;0.50;;
32196;SDS011;18697;42.770;23.400;2023-04-25T12:11:41;0.40;;;0.40;;
32196;SDS011;18697;42.770;23.400;2023-04-25T12:14:07;1.85;;;0.90;;
32196;SDS011;18697;42.770;23.400;2023-04-25T12:17:06;1.10;;;0.75;;
32196;SDS011;18697;42.770;23.400;2023-04-25T12:19:26;2.70;;;1.30;;
32196;SDS011;18697;42.770;23.400;2023-04-25T12:21:56;2.40;;;0.98;;
32196;SDS011;18697;42.770;23.400;2023-04-25T12:24:22;3.75;;;0.90;;
32196;SDS011;18697;42.770;23.400;2023-04-25T12:26:58;0.60;;;0.60;;
32196;SDS011;18697;42.770;23.400;2023-04-25T12:29:24;3.92;;;0.95;;
32196;SDS011;18697;42.770;23.400;2023-04-25T12:31:51;0.75;;;0.68;;
32196;SDS011;18697;42.770;23.400;2023-04-25T12:34:18;1.88;;;1.02;;
32196;SDS011;18697;42.770;23.400;2023-04-25T12:36:47;12.05;;;2.40;;
32196;SDS011;18697;42.770;23.400;2023-04-25T12:39:16;7.40;;;1.52;;
32196;SDS011;18697;42.770;23.400;2023-04-25T12:41:49;5.78;;;1.50;;
32196;SDS011;18697;42.770;23.400;2023-04-25T12:44:15;6.28;;;1.23;;
32196;SDS011;18697;42.770;23.400;2023-04-25T12:46:42;4.68;;;1.27;;
32196;SDS011;18697;42.770;23.400;2023-04-25T12:49:07;7.07;;;1.50;;
32196;SDS011;18697;42.770;23.400;2023-04-25T12:51:33;3.03;;;1.30;;
32196;SDS011;18697;42.770;23.400;2023-04-25T12:53:59;3.03;;;0.95;;
32196;SDS011;18697;42.770;23.400;2023-04-25T12:56:28;4.07;;;2.33;;
32196;SDS011;18697;42.770;23.400;2023-04-25T12:58:54;11.13;;;3.92;;
32196;SDS011;18697;42.770;23.400;2023-04-25T13:01:20;5.97;;;1.80;;
32196;SDS011;18697;42.770;23.400;2023-04-25T13:03:46;1.60;;;1.20;;
32196;SDS011;18697;42.770;23.400;2023-04-25T13:06:13;1.10;;;1.00;;
32196;SDS011;18697;42.770;23.400;2023-04-25T13:08:38;2.90;;;1.60;;
32196;SDS011;18697;42.770;23.400;2023-04-25T13:11:04;2.22;;;1.30;;
32196;SDS011;18697;42.770;23.400;2023-04-25T13:13:30;1.10;;;0.88;;
32196;SDS011;18697;42.770;23.400;2023-04-25T13:15:56;1.02;;;0.90;;
32196;SDS011;18697;42.770;23.400;2023-04-25T13:18:22;2.15;;;1.30;;
32196;SDS011;18697;42.770;23.400;2023-04-25T13:20:51;5.18;;;0.82;;
32196;SDS011;18697;42.770;23.400;2023-04-25T13:23:17;1.33;;;0.88;;
32196;SDS011;18697;42.770;23.400;2023-04-25T13:25:42;1.42;;;1.00;;
32196;SDS011;18697;42.770;23.400;2023-04-25T13:28:08;2.78;;;1.13;;
32196;SDS011;18697;42.770;23.400;2023-04-25T13:30:33;0.57;;;0.50;;
32196;SDS011;18697;42.770;23.400;2023-04-25T13:32:58;1.02;;;0.85;;
32196;SDS011;18697;42.770;23.400;2023-04-25T13:35:28;1.05;;;0.95;;
32196;SDS011;18697;42.770;23.400;2023-04-25T13:37:54;0.95;;;0.90;;
32196;SDS011;18697;42.770;23.400;2023-04-25T13:40:20;4.00;;;1.50;;
32196;SDS011;18697;42.770;23.400;2023-04-25T13:42:45;2.15;;;1.20;;
32196;SDS011;18697;42.770;23.400;2023-04-25T13:47:36;3.42;;;1.50;;
32196;SDS011;18697;42.770;23.400;2023-04-25T13:50:02;3.08;;;2.22;;
32196;SDS011;18697;42.770;23.400;2023-04-25T13:52:28;5.20;;;2.40;;
32196;SDS011;18697;42.770;23.400;2023-04-25T13:54:54;2.55;;;2.20;;
32196;SDS011;18697;42.770;23.400;2023-04-25T13:57:19;7.10;;;2.40;;
32196;SDS011;18697;42.770;23.400;2023-04-25T13:59:45;6.88;;;2.90;;
32196;SDS011;18697;42.770;23.400;2023-04-25T14:02:11;9.50;;;3.90;;
32196;SDS011;18697;42.770;23.400;2023-04-25T14:04:37;4.40;;;3.47;;
32196;SDS011;18697;42.770;23.400;2023-04-25T14:07:03;5.50;;;4.20;;
32196;SDS011;18697;42.770;23.400;2023-04-25T14:09:29;8.27;;;4.95;;
32196;SDS011;18697;42.770;23.400;2023-04-25T14:11:55;4.20;;;3.80;;
32196;SDS011;18697;42.770;23.400;2023-04-25T14:16:47;5.70;;;3.83;;
32196;SDS011;18697;42.770;23.400;2023-04-25T14:19:13;5.72;;;3.53;;
32196;SDS011;18697;42.770;23.400;2023-04-25T14:21:39;4.28;;;3.42;;
32196;SDS011;18697;42.770;23.400;2023-04-25T14:24:05;4.03;;;2.65;;
32196;SDS011;18697;42.770;23.400;2023-04-25T14:26:31;3.95;;;3.17;;
32196;SDS011;18697;42.770;23.400;2023-04-25T14:28:58;2.38;;;1.65;;
32196;SDS011;18697;42.770;23.400;2023-04-25T14:31:24;7.32;;;4.82;;
32196;SDS011;18697;42.770;23.400;2023-04-25T14:33:49;3.58;;;2.38;;
32196;SDS011;18697;42.770;23.400;2023-04-25T14:36:15;4.22;;;2.00;;
32196;SDS011;18697;42.770;23.400;2023-04-25T14:38:40;4.75;;;2.30;;
32196;SDS011;18697;42.770;23.400;2023-04-25T14:41:05;1.90;;;1.73;;
32196;SDS011;18697;42.770;23.400;2023-04-25T14:43:31;3.60;;;2.20;;
32196;SDS011;18697;42.770;23.400;2023-04-25T14:45:56;5.05;;;2.70;;
32196;SDS011;18697;42.770;23.400;2023-04-25T14:48:22;5.13;;;3.08;;
32196;SDS011;18697;42.770;23.400;2023-04-25T14:50:48;4.05;;;3.17;;